createdAt,value
2023-08-19T00:00:02.807Z,23.10
2023-08-19T00:02:43.099Z,23.20
2023-08-19T00:05:11.302Z,23.00
2023-08-19T00:07:38.937Z,23.20
2023-08-19T00:10:07.275Z,23.10
2023-08-19T00:12:35.009Z,23.70
2023-08-19T00:15:02.701Z,23.30
2023-08-19T00:17:30.769Z,23.10
2023-08-19T00:19:58.676Z,23.10
2023-08-19T00:22:26.224Z,23.00
2023-08-19T00:24:53.816Z,22.90
2023-08-19T00:27:21.374Z,23.00
2023-08-19T00:29:49.015Z,22.90
2023-08-19T00:32:16.833Z,23.50
2023-08-19T00:34:45.235Z,23.00
2023-08-19T00:37:12.778Z,23.00
2023-08-19T00:39:40.312Z,23.00
2023-08-19T00:42:10.600Z,23.20
2023-08-19T00:44:38.154Z,22.90
2023-08-19T00:47:05.904Z,22.90
2023-08-19T00:49:34.923Z,22.90
2023-08-19T00:52:02.634Z,23.30
2023-08-19T00:54:31.259Z,23.00
2023-08-19T00:56:59.004Z,22.80
2023-08-19T00:59:27.651Z,22.80
2023-08-19T01:01:55.187Z,22.80
2023-08-19T01:04:22.781Z,22.90
2023-08-19T01:07:16.118Z,22.80
2023-08-19T01:09:59.421Z,22.90
2023-08-19T01:12:53.475Z,22.80
2023-08-19T01:15:26.462Z,23.00
2023-08-19T01:17:55.129Z,22.80
2023-08-19T01:20:24.970Z,22.80
2023-08-19T01:23:06.756Z,23.00
2023-08-19T01:25:34.589Z,22.80
2023-08-19T01:28:05.671Z,22.80
2023-08-19T01:30:35.269Z,22.80
2023-08-19T01:33:04.682Z,23.00
2023-08-19T01:35:39.580Z,23.20
2023-08-19T01:38:09.639Z,22.80
2023-08-19T01:40:40.310Z,22.80
2023-08-19T01:43:12.734Z,22.80
2023-08-19T01:45:41.534Z,22.80
2023-08-19T01:48:10.203Z,22.80
2023-08-19T01:50:40.083Z,22.80
2023-08-19T01:53:07.637Z,22.80
2023-08-19T01:55:35.182Z,22.80
2023-08-19T01:58:02.683Z,22.90
2023-08-19T02:00:30.852Z,23.00
2023-08-19T02:02:58.275Z,23.10
2023-08-19T02:05:27.124Z,23.00
2023-08-19T02:07:54.651Z,23.10
2023-08-19T02:10:23.732Z,23.10
2023-08-19T02:12:51.814Z,23.00
2023-08-19T02:15:19.820Z,23.00
2023-08-19T02:17:47.317Z,23.00
2023-08-19T02:20:15.170Z,23.00
2023-08-19T02:22:42.778Z,23.10
2023-08-19T02:25:10.398Z,23.10
2023-08-19T02:27:39.858Z,23.10
2023-08-19T02:30:08.079Z,23.00
2023-08-19T02:32:37.038Z,23.00
2023-08-19T02:35:04.932Z,23.40
2023-08-19T02:37:32.758Z,23.00
2023-08-19T02:40:00.523Z,23.00
2023-08-19T02:42:28.380Z,23.20
2023-08-19T02:44:55.966Z,23.00
2023-08-19T02:47:23.900Z,23.00
2023-08-19T02:49:51.750Z,23.00
2023-08-19T02:52:21.511Z,23.10
2023-08-19T02:54:51.604Z,23.30
2023-08-19T02:57:19.072Z,23.00
2023-08-19T02:59:47.232Z,23.00
2023-08-19T03:02:14.732Z,23.10
2023-08-19T03:04:42.275Z,23.10
2023-08-19T03:07:09.837Z,23.00
2023-08-19T03:09:37.329Z,20.80
2023-08-19T03:12:05.282Z,23.80
2023-08-19T03:14:34.740Z,23.00
2023-08-19T03:17:03.384Z,23.10
2023-08-19T03:19:31.075Z,23.10
2023-08-19T03:21:58.617Z,23.00
2023-08-19T03:24:26.175Z,23.10
2023-08-19T03:26:53.681Z,23.70
2023-08-19T03:29:21.299Z,23.20
2023-08-19T03:31:49.500Z,23.00
2023-08-19T03:34:17.838Z,22.90
2023-08-19T03:36:45.893Z,23.20
2023-08-19T03:39:13.445Z,23.00
2023-08-19T03:41:41.127Z,23.00
2023-08-19T03:44:08.671Z,23.10
2023-08-19T03:46:36.401Z,23.00
2023-08-19T03:49:04.050Z,23.00
2023-08-19T03:51:32.871Z,23.10
2023-08-19T03:54:00.406Z,23.00
2023-08-19T03:56:27.957Z,22.90
2023-08-19T03:58:57.794Z,23.00
2023-08-19T04:01:25.412Z,23.10
2023-08-19T04:03:53.047Z,23.00
2023-08-19T04:06:20.669Z,23.00
2023-08-19T04:08:50.118Z,23.00
2023-08-19T04:11:19.719Z,23.10
2023-08-19T04:13:50.053Z,23.00
2023-08-19T04:16:17.738Z,23.40
2023-08-19T04:18:45.253Z,23.30
2023-08-19T04:21:12.893Z,23.10
2023-08-19T04:23:42.309Z,23.10
2023-08-19T04:26:09.806Z,23.00
2023-08-19T04:28:37.614Z,23.00
2023-08-19T04:31:08.715Z,23.10
2023-08-19T04:33:45.380Z,24.20
2023-08-19T04:36:13.538Z,23.10
2023-08-19T04:38:41.172Z,23.10
2023-08-19T04:41:09.768Z,23.10
2023-08-19T04:43:43.773Z,23.10
2023-08-19T04:46:13.045Z,23.10
2023-08-19T04:48:40.636Z,23.00
2023-08-19T04:51:08.623Z,23.10
2023-08-19T04:53:36.104Z,23.00
2023-08-19T04:56:05.187Z,23.00
2023-08-19T04:58:36.044Z,23.00
2023-08-19T05:01:04.102Z,23.00
2023-08-19T05:03:32.839Z,23.00
2023-08-19T05:06:00.507Z,23.00
2023-08-19T05:08:38.283Z,23.00
2023-08-19T05:11:05.787Z,23.00
2023-08-19T05:13:34.107Z,23.00
2023-08-19T05:16:01.755Z,23.00
2023-08-19T05:18:29.718Z,23.10
2023-08-19T05:20:57.096Z,23.10
2023-08-19T05:23:25.153Z,23.10
2023-08-19T05:25:52.682Z,23.00
2023-08-19T05:28:20.071Z,23.10
2023-08-19T05:30:47.637Z,23.10
2023-08-19T05:33:15.229Z,23.10
2023-08-19T05:35:42.784Z,23.20
2023-08-19T05:38:10.195Z,23.10
2023-08-19T05:40:37.602Z,23.10
2023-08-19T05:43:05.056Z,23.20
2023-08-19T05:45:34.884Z,23.20
2023-08-19T05:48:02.395Z,23.30
2023-08-19T05:50:29.907Z,23.40
2023-08-19T05:52:57.361Z,23.40
2023-08-19T05:55:24.769Z,23.50
2023-08-19T05:57:52.377Z,23.50
2023-08-19T06:00:20.168Z,23.50
2023-08-19T06:02:47.767Z,23.50
2023-08-19T06:05:15.333Z,23.50
2023-08-19T06:07:42.818Z,23.50
2023-08-19T06:10:10.635Z,23.60
2023-08-19T06:12:38.552Z,23.60
2023-08-19T06:15:06.487Z,23.60
2023-08-19T06:17:34.132Z,23.70
2023-08-19T06:20:01.964Z,23.70
2023-08-19T06:22:29.416Z,23.80
2023-08-19T06:24:56.917Z,23.80
2023-08-19T06:27:24.424Z,23.90
2023-08-19T06:29:51.896Z,23.70
2023-08-19T06:32:19.889Z,24.10
2023-08-19T06:34:47.638Z,24.20
2023-08-19T06:37:21.030Z,24.20
2023-08-19T06:39:51.151Z,24.30
2023-08-19T06:42:20.871Z,24.30
2023-08-19T06:44:51.527Z,24.40
2023-08-19T06:47:24.980Z,24.50
2023-08-19T06:49:53.133Z,24.50
2023-08-19T06:52:20.938Z,24.70
2023-08-19T06:54:49.734Z,24.90
2023-08-19T06:57:30.616Z,25.00
2023-08-19T07:00:10.240Z,25.20
2023-08-19T07:02:39.139Z,25.30
2023-08-19T07:05:11.919Z,25.40
2023-08-19T07:07:43.347Z,25.40
2023-08-19T07:10:11.732Z,25.40
2023-08-19T07:12:39.265Z,25.40
2023-08-19T07:15:13.048Z,25.40
2023-08-19T07:17:49.143Z,25.50
2023-08-19T07:20:22.245Z,25.50
2023-08-19T07:22:52.616Z,25.50
2023-08-19T07:25:23.322Z,25.60
2023-08-19T07:27:51.530Z,25.60
2023-08-19T07:30:19.681Z,25.70
2023-08-19T07:32:47.555Z,25.70
2023-08-19T07:35:15.082Z,25.80
2023-08-19T07:37:42.646Z,25.70
2023-08-19T07:40:11.108Z,25.80
2023-08-19T07:42:38.555Z,25.70
2023-08-19T07:45:07.004Z,25.80
2023-08-19T07:47:34.759Z,25.80
2023-08-19T07:50:03.463Z,25.80
2023-08-19T07:52:30.914Z,25.90
2023-08-19T07:54:58.791Z,25.90
2023-08-19T07:57:26.329Z,25.70
2023-08-19T07:59:53.923Z,25.90
2023-08-19T08:02:21.897Z,26.00
2023-08-19T08:04:49.626Z,25.90
2023-08-19T08:07:17.148Z,25.70
2023-08-19T08:09:46.562Z,25.90
2023-08-19T08:12:14.088Z,25.90
2023-08-19T08:14:41.603Z,25.90
2023-08-19T08:17:09.052Z,25.90
2023-08-19T08:19:37.154Z,25.90
2023-08-19T08:22:04.621Z,23.90
2023-08-19T08:24:32.833Z,25.90
2023-08-19T08:27:00.310Z,26.00
2023-08-19T08:29:27.741Z,26.00
2023-08-19T08:31:55.204Z,26.00
2023-08-19T08:34:22.676Z,26.00
2023-08-19T08:36:50.178Z,26.00
2023-08-19T08:39:17.784Z,26.00
2023-08-19T08:41:46.766Z,26.00
2023-08-19T08:44:14.346Z,26.60
2023-08-19T08:46:46.098Z,26.00
2023-08-19T08:49:14.708Z,25.60
2023-08-19T08:51:42.741Z,26.20
2023-08-19T08:54:11.437Z,26.30
2023-08-19T08:56:38.964Z,26.40
2023-08-19T08:59:06.462Z,26.40
2023-08-19T09:01:35.931Z,26.40
2023-08-19T09:04:06.851Z,26.40
2023-08-19T09:06:34.680Z,26.50
2023-08-19T09:09:04.871Z,26.50
2023-08-19T09:11:37.867Z,26.70
2023-08-19T09:14:19.361Z,26.80
2023-08-19T09:16:46.952Z,27.10
2023-08-19T09:19:14.892Z,27.00
2023-08-19T09:21:43.932Z,27.70
2023-08-19T09:24:18.477Z,27.90
2023-08-19T09:26:46.362Z,27.90
2023-08-19T09:29:13.808Z,27.80
2023-08-19T09:31:41.436Z,27.80
2023-08-19T09:34:08.938Z,27.70
2023-08-19T09:36:36.396Z,27.60
2023-08-19T09:39:04.296Z,27.60
2023-08-19T09:41:31.836Z,27.50
2023-08-19T09:43:59.594Z,27.30
2023-08-19T09:46:34.983Z,27.30
2023-08-19T09:49:04.836Z,27.20
2023-08-19T09:51:33.282Z,27.10
2023-08-19T09:54:10.653Z,27.00
2023-08-19T09:56:38.246Z,27.00
2023-08-19T09:59:06.863Z,27.10
2023-08-19T10:01:35.359Z,27.10
2023-08-19T10:04:02.814Z,25.70
2023-08-19T10:06:35.353Z,27.20
2023-08-19T10:09:06.058Z,27.20
2023-08-19T10:11:35.612Z,27.20
2023-08-19T10:14:05.624Z,27.10
2023-08-19T10:16:36.901Z,27.10
2023-08-19T10:19:06.584Z,27.10
2023-08-19T10:21:34.704Z,27.30
2023-08-19T10:24:03.249Z,27.50
2023-08-19T10:26:30.865Z,27.50
2023-08-19T10:29:08.781Z,27.80
2023-08-19T10:31:37.436Z,28.00
2023-08-19T10:34:20.209Z,28.10
2023-08-19T10:37:09.256Z,28.10
2023-08-19T10:39:37.619Z,28.00
2023-08-19T10:42:05.574Z,28.00
2023-08-19T10:44:34.736Z,27.90
2023-08-19T10:47:16.847Z,27.90
2023-08-19T10:49:47.757Z,28.10
2023-08-19T10:52:21.980Z,28.20
2023-08-19T10:54:49.409Z,28.30
2023-08-19T10:57:25.468Z,28.40
2023-08-19T10:59:59.863Z,28.30
2023-08-19T11:02:28.717Z,28.30
2023-08-19T11:04:58.544Z,28.20
2023-08-19T11:07:27.063Z,28.20
2023-08-19T11:09:57.858Z,28.10
2023-08-19T11:12:28.326Z,28.00
2023-08-19T11:14:56.726Z,27.80
2023-08-19T11:17:29.693Z,27.70
2023-08-19T11:19:59.406Z,27.70
2023-08-19T11:22:27.138Z,27.70
2023-08-19T11:24:54.616Z,27.70
2023-08-19T11:27:22.290Z,27.80
2023-08-19T11:29:49.890Z,27.80
2023-08-19T11:32:21.306Z,27.80
2023-08-19T11:34:48.760Z,27.90
2023-08-19T11:37:17.527Z,27.90
2023-08-19T11:39:46.607Z,28.00
2023-08-19T11:42:14.471Z,27.90
2023-08-19T11:44:45.302Z,27.90
2023-08-19T11:47:13.305Z,27.80
2023-08-19T11:49:43.638Z,27.70
2023-08-19T11:52:11.174Z,27.50
2023-08-19T11:54:38.582Z,27.30
2023-08-19T11:57:07.540Z,27.20
2023-08-19T11:59:36.276Z,27.30
2023-08-19T12:02:05.985Z,27.30
2023-08-19T12:04:35.208Z,27.30
2023-08-19T12:07:27.091Z,27.10
2023-08-19T12:10:00.727Z,26.90
2023-08-19T12:12:30.201Z,26.70
2023-08-19T12:14:59.428Z,26.40
2023-08-19T12:17:26.893Z,26.30
2023-08-19T12:19:54.262Z,26.20
2023-08-19T12:22:22.037Z,26.20
2023-08-19T12:24:49.675Z,26.20
2023-08-19T12:27:17.172Z,26.20
2023-08-19T12:29:44.574Z,26.30
2023-08-19T12:32:12.358Z,26.40
2023-08-19T12:34:39.825Z,26.40
2023-08-19T12:37:07.495Z,26.40
2023-08-19T12:39:34.911Z,26.40
2023-08-19T12:42:02.413Z,26.30
2023-08-19T12:44:30.017Z,26.20
2023-08-19T12:46:57.732Z,26.00
2023-08-19T12:49:25.158Z,26.00
2023-08-19T12:51:52.942Z,25.90
2023-08-19T12:54:20.356Z,25.80
2023-08-19T12:56:48.968Z,25.70
2023-08-19T12:59:16.356Z,25.70
2023-08-19T13:01:43.787Z,25.60
2023-08-19T13:04:11.923Z,25.40
2023-08-19T13:06:39.479Z,25.30
2023-08-19T13:09:06.997Z,25.20
2023-08-19T13:11:34.469Z,25.10
2023-08-19T13:14:01.910Z,25.00
2023-08-19T13:16:29.336Z,25.10
2023-08-19T13:18:56.907Z,24.80
2023-08-19T13:21:24.342Z,24.80
2023-08-19T13:23:54.868Z,24.50
2023-08-19T13:26:22.354Z,24.40
2023-08-19T13:28:49.760Z,24.30
2023-08-19T13:31:19.143Z,24.20
2023-08-19T13:33:46.903Z,24.10
2023-08-19T13:36:14.387Z,24.10
2023-08-19T13:38:41.945Z,23.50
2023-08-19T13:41:09.796Z,24.20
2023-08-19T13:43:38.687Z,24.30
2023-08-19T13:46:06.383Z,24.40
2023-08-19T13:48:33.881Z,24.60
2023-08-19T13:51:01.306Z,24.80
2023-08-19T13:53:28.938Z,24.90
2023-08-19T13:55:57.358Z,25.00
2023-08-19T13:58:24.746Z,25.10
2023-08-19T14:00:52.185Z,25.10
2023-08-19T14:03:19.977Z,25.10
2023-08-19T14:05:47.582Z,25.10
2023-08-19T14:08:15.024Z,25.20
2023-08-19T14:10:42.942Z,25.20
2023-08-19T14:13:16.122Z,23.30
2023-08-19T14:15:43.693Z,25.30
2023-08-19T14:18:11.179Z,25.10
2023-08-19T14:20:41.015Z,25.20
2023-08-19T14:23:08.617Z,25.30
2023-08-19T14:25:36.134Z,25.60
2023-08-19T14:28:04.124Z,25.30
2023-08-19T14:30:31.685Z,25.30
2023-08-19T14:32:59.405Z,25.40
2023-08-19T14:35:27.102Z,25.50
2023-08-19T14:37:56.066Z,25.70
2023-08-19T14:40:30.086Z,25.80
2023-08-19T14:42:59.219Z,26.00
2023-08-19T14:45:29.200Z,26.50
2023-08-19T14:47:58.331Z,26.10
2023-08-19T14:50:59.319Z,26.20
2023-08-19T14:53:26.936Z,26.00
2023-08-19T14:55:56.020Z,26.00
2023-08-19T14:58:27.241Z,25.50
2023-08-19T15:00:55.535Z,25.90
2023-08-19T15:03:23.270Z,26.00
2023-08-19T15:05:53.775Z,26.00
2023-08-19T15:08:21.688Z,26.10
2023-08-19T15:10:49.295Z,26.40
2023-08-19T15:21:16.936Z,26.00
2023-08-19T15:24:18.800Z,25.90
2023-08-19T15:30:59.360Z,25.90
2023-08-19T15:33:32.168Z,25.70
2023-08-19T15:36:20.985Z,26.60
2023-08-19T15:38:51.312Z,24.70
2023-08-19T15:41:21.248Z,25.80
2023-08-19T15:43:52.062Z,25.90
2023-08-19T15:46:20.036Z,24.00
2023-08-19T15:49:06.981Z,25.70
2023-08-19T15:51:43.437Z,23.30
2023-08-19T15:54:11.872Z,25.70
2023-08-19T15:56:43.698Z,27.00
2023-08-19T16:45:00.812Z,25.40
2023-08-19T16:47:37.283Z,25.10
2023-08-19T17:04:04.424Z,24.10
2023-08-19T17:06:31.993Z,25.60
2023-08-19T17:09:01.211Z,24.50
2023-08-19T17:11:29.850Z,24.50
2023-08-19T17:14:00.528Z,24.50
2023-08-19T17:16:28.189Z,24.40
2023-08-19T17:18:55.764Z,24.70
2023-08-19T17:21:23.363Z,24.40
2023-08-19T17:23:52.536Z,24.30
2023-08-19T17:26:24.096Z,24.30
2023-08-19T17:28:51.669Z,23.50
2023-08-19T17:31:19.334Z,24.10
2023-08-19T17:33:49.107Z,24.30
2023-08-19T17:36:16.816Z,24.50
2023-08-19T17:38:44.724Z,24.10
2023-08-19T17:41:12.264Z,24.50
2023-08-19T17:43:41.237Z,22.70
2023-08-19T17:46:08.703Z,24.10
2023-08-19T17:48:36.294Z,24.00
2023-08-19T17:51:05.865Z,24.00
2023-08-19T17:53:35.052Z,23.90
2023-08-19T17:56:04.015Z,23.90
2023-08-19T17:58:32.333Z,24.00
2023-08-19T18:01:02.758Z,23.80
2023-08-19T18:03:30.867Z,23.70
2023-08-19T18:05:58.895Z,23.80
2023-08-19T18:08:27.071Z,23.80
2023-08-19T18:10:55.696Z,23.70
2023-08-19T18:13:29.460Z,23.60
2023-08-19T18:15:57.035Z,23.60
2023-08-19T18:18:24.686Z,23.50
2023-08-19T18:20:55.851Z,23.30
2023-08-19T18:23:23.589Z,25.00
2023-08-19T18:25:51.104Z,23.20
2023-08-19T18:28:20.861Z,23.20
2023-08-19T18:30:54.352Z,23.50
2023-08-19T18:33:22.223Z,23.10
2023-08-19T18:35:54.439Z,23.00
2023-08-19T18:38:22.107Z,23.00
2023-08-19T18:40:49.805Z,22.90
2023-08-19T18:43:17.391Z,22.90
2023-08-19T18:45:44.882Z,22.80
2023-08-19T18:48:13.938Z,22.80
2023-08-19T18:50:43.395Z,22.80
2023-08-19T18:53:10.912Z,22.70
2023-08-19T18:55:40.950Z,22.70
2023-08-19T18:58:08.626Z,22.60
2023-08-19T19:00:36.904Z,22.60
2023-08-19T19:03:05.747Z,22.60
2023-08-19T19:05:34.241Z,22.50
2023-08-19T19:08:01.919Z,22.50
2023-08-19T19:10:29.382Z,22.50
2023-08-19T19:12:56.836Z,22.50
2023-08-19T19:15:24.347Z,21.60
2023-08-19T19:17:52.426Z,22.50
2023-08-19T19:20:21.057Z,22.40
2023-08-19T19:22:48.819Z,22.40
2023-08-19T19:25:17.793Z,22.30
2023-08-19T19:27:46.975Z,22.30
2023-08-19T19:30:16.439Z,22.30
2023-08-19T19:32:45.640Z,22.20
2023-08-19T19:35:14.630Z,22.20
2023-08-19T19:37:44.218Z,22.20
2023-08-19T19:40:13.005Z,22.10
2023-08-19T19:42:41.092Z,22.10
2023-08-19T19:45:10.262Z,22.50
2023-08-19T19:47:39.052Z,22.00
2023-08-19T19:50:07.942Z,22.00
2023-08-19T19:52:35.598Z,22.00
2023-08-19T19:55:04.259Z,21.90
2023-08-19T19:57:31.952Z,21.80
2023-08-19T19:59:59.709Z,21.90
2023-08-19T20:02:27.342Z,22.30
2023-08-19T20:04:56.651Z,21.60
2023-08-19T20:11:06.073Z,21.60
2023-08-19T20:13:36.691Z,20.70
2023-08-19T20:16:04.740Z,21.10
2023-08-19T20:18:32.235Z,21.80
2023-08-19T20:20:59.776Z,21.40
2023-08-19T20:23:27.339Z,21.20
2023-08-19T20:25:54.968Z,21.10
2023-08-19T20:28:22.553Z,21.40
2023-08-19T20:30:50.060Z,21.10
2023-08-19T20:33:17.502Z,21.10
2023-08-19T20:35:45.447Z,20.90
2023-08-19T20:38:12.946Z,20.90
2023-08-19T20:40:40.448Z,20.90
2023-08-19T20:43:07.909Z,20.90
2023-08-19T21:03:53.654Z,20.80
2023-08-19T21:11:31.845Z,20.80
2023-08-19T21:33:33.639Z,20.90
2023-08-19T21:44:43.021Z,20.80
2023-08-19T21:47:14.740Z,20.80
2023-08-19T22:05:45.814Z,20.70
2023-08-19T22:36:29.530Z,20.20
2023-08-19T22:55:20.367Z,19.90
2023-08-19T22:58:12.344Z,19.90
2023-08-19T23:07:45.543Z,19.80
2023-08-19T23:11:03.416Z,19.70
2023-08-19T23:13:37.009Z,19.70
2023-08-19T23:16:39.522Z,19.70
2023-08-19T23:30:35.852Z,19.60
2023-08-19T23:38:34.967Z,19.50
2023-08-19T23:42:00.875Z,19.40
